Chanthaburi, Thailand
Current Conditions -  °F | °C
As of 6:30 AM on Sunday 26 Oct 2014 (Local Time) from VTBU Reporting Station
Haze Haze  
Wind Chill: 75°   Ceiling: Unl
Heat Index: 75°   Visibility: 2.5mi
Dew Point: 73°   Wind: 3mph
Humidity: 94%   Direction: 320°NW
Pressure: 29.88"   Gusts: NA
Location:  12.61°N, 102.11°E
Report Text: VTBU 252330Z 32003KT 4000 BR FEW020CB SCT300 24/23 Q1012 A2990 CB SSWNW
Loading
Personal Weather Stations






























Interactive Weather Map
Tropical Storm Tracking
New forecast layout! Learn more

10-Day Weather Forecast

Advertisements
Track Severe Weather on mobile